Gustavus Airport Gustavus US
ICAO: PAGS
IATA:
Category: Medium
Scheduled Services:

Elevation: 35 ft
TransAlt. 18000 ft.

Airport Communications:
AWOS 3:125.9
ANCHORAGE CNTR:133.2
CTAF:122.5
JUNEAU RDO:122.65

PAGS Zoom In..

If you have problems with the map follow the link
https://www.worldairports.se/pages/airport.php?
ICAO=PAGS

Runways:

(A) RW 02 length 3146 ft width 60 ft
---- / hdg 21

(B) RW 11 length 6721 ft width 150 ft
---- / hdg 115

(C) RW 20 length 3146 ft width 60 ft
---- / hdg 201

(D) RW 29 length 6721 ft width 150 ft
---- / hdg 295

Location; PAGS
Day. 17 / Time. 21.56 Zulu
* Altimeter: 30.19
* Temperature: -07° c. -19.4°f.
* Wind from: 030° Speed 06 kn.
Dewpoint: -19° c.
Visibility: 10 Statute Miles.
Clouds: Clear (automated report).

PAGS 172156Z AUTO 03006KT 10SM CLR M07/M19 A3019 RMK AO2 SNB22E33 SLP221 P0000 T10721194 FZRANO


Wind From 030°
Speed 06 kn.

 
 
jpsmedia worldairports.se 2020   terms of use